Time;durP1;ratioP1;P1;durP2;ratioP2;P2;SDS_P1;SDS_P2;PMS_P1;PMS_P2;Temp;Humidity;BMP_temperature;BMP_pressure;BME280_temperature;BME280_humidity;BME280_pressure;Samples;Min_cycle;Max_cycle;Signal;HPM_P1;HPM_P2
2024/02/29 00:00:06;;;;;;;31.33;21.80;;;1.00;99.90;;;-0.06;100.00;98367.78;5057743;28;20468;-73
2024/02/29 00:02:35;;;;;;;34.37;21.40;;;1.00;99.90;;;-0.48;100.00;98302.50;5056916;28;20504;-69
2024/02/29 00:05:02;;;;;;;36.70;21.33;;;1.00;99.90;;;-0.08;100.00;98354.63;5057735;28;20448;-71
2024/02/29 00:07:31;;;;;;;33.60;22.50;;;1.00;99.90;;;-0.13;100.00;98356.88;5053485;28;20460;-69
2024/02/29 00:09:58;;;;;;;34.90;21.40;;;1.00;99.90;;;-0.21;100.00;98354.91;5059301;28;20862;-72
2024/02/29 00:12:26;;;;;;;31.77;21.23;;;0.90;99.90;;;-0.24;100.00;98343.72;5047162;28;20452;-70
2024/02/29 00:14:53;;;;;;;30.93;21.87;;;0.90;99.90;;;-0.16;100.00;98342.03;5063162;28;20449;-70
2024/02/29 00:17:21;;;;;;;30.97;20.83;;;0.90;99.90;;;-0.08;100.00;98337.88;5056362;28;20479;-70
2024/02/29 00:19:52;;;;;;;31.67;20.57;;;0.90;99.90;;;-0.09;100.00;98329.06;5055048;28;20522;-69
2024/02/29 00:22:19;;;;;;;33.67;21.03;;;0.90;99.90;;;-0.72;100.00;98226.72;5052638;28;20886;-70
2024/02/29 00:24:46;;;;;;;33.77;20.60;;;1.00;99.90;;;-0.09;100.00;98323.75;5053787;28;20471;-70
2024/02/29 00:27:14;;;;;;;32.67;20.70;;;0.90;99.90;;;-0.04;100.00;98320.66;5048544;28;20495;-70
2024/02/29 00:29:43;;;;;;;33.53;22.03;;;1.00;99.90;;;-0.06;100.00;98323.47;5053545;28;20459;-71
2024/02/29 00:32:11;;;;;;;28.77;20.93;;;1.00;99.90;;;-0.58;100.00;98228.97;5050255;28;20485;-71
2024/02/29 00:34:38;;;;;;;32.40;21.20;;;1.00;99.90;;;-0.05;100.00;98314.53;5052378;28;20445;-71
2024/02/29 00:37:08;;;;;;;32.60;21.67;;;1.00;99.90;;;0.05;100.00;98314.53;5047554;28;20583;-71
2024/02/29 00:39:35;;;;;;;33.93;22.30;;;1.00;99.90;;;0.03;100.00;98310.31;5060505;28;20768;-70
2024/02/29 00:42:02;;;;;;;32.07;21.47;;;1.10;99.90;;;-0.10;100.00;98290.19;5047466;28;20466;-70
2024/02/29 00:44:29;;;;;;;35.90;22.40;;;1.10;99.90;;;0.07;100.00;98303.72;5051858;28;20467;-70
2024/02/29 00:46:57;;;;;;;38.20;22.40;;;1.10;99.90;;;0.09;100.00;98299.97;5049788;28;20465;-70
2024/02/29 00:49:24;;;;;;;34.23;21.80;;;1.20;99.90;;;0.19;100.00;98297.28;5054056;28;20707;-70
2024/02/29 00:51:51;;;;;;;35.03;22.40;;;1.20;99.90;;;0.22;100.00;98293.53;5049707;28;20460;-73
2024/02/29 00:54:24;;;;;;;35.53;22.07;;;1.20;99.90;;;0.23;100.00;98290.72;5053041;28;20446;-72
2024/02/29 00:56:52;;;;;;;38.13;21.77;;;1.30;99.90;;;0.25;100.00;98283.44;5069249;28;20845;-70
2024/02/29 00:59:19;;;;;;;32.07;20.23;;;1.30;99.90;;;0.31;100.00;98275.88;5060294;28;20455;-71
2024/02/29 01:01:46;;;;;;;31.57;23.70;;;1.30;99.90;;;0.31;100.00;98276.72;5047704;28;20461;-72
2024/02/29 01:04:15;;;;;;;31.53;21.47;;;1.30;99.90;;;0.20;100.00;98271.56;5053033;28;20445;-70
2024/02/29 01:06:42;;;;;;;32.13;21.50;;;1.30;99.90;;;0.30;100.00;98282.19;5055511;28;20525;-71
2024/02/29 01:09:10;;;;;;;30.53;20.23;;;1.30;99.90;;;0.37;100.00;98272.63;5052324;28;20494;-72
2024/02/29 01:11:40;;;;;;;34.00;20.20;;;1.40;99.90;;;0.49;100.00;98273.31;5057847;28;20566;-70
2024/02/29 01:14:07;;;;;;;39.57;23.17;;;1.50;99.90;;;0.58;100.00;98276.94;5048328;28;20533;-70
2024/02/29 01:16:35;;;;;;;32.37;22.37;;;1.60;99.90;;;0.62;100.00;98267.66;5052304;28;20534;-69
2024/02/29 01:19:02;;;;;;;33.23;22.00;;;1.60;99.90;;;0.60;100.00;98261.66;5060698;28;20452;-71
2024/02/29 01:21:30;;;;;;;32.27;22.20;;;1.70;99.90;;;0.77;100.00;98252.09;5075748;28;20456;-70
2024/02/29 01:23:57;;;;;;;29.50;21.70;;;1.80;99.90;;;0.49;100.00;98242.22;5056014;28;20482;-69
2024/02/29 01:26:24;;;;;;;30.13;20.50;;;1.70;99.90;;;0.76;100.00;98247.72;5040367;28;20499;-71
2024/02/29 01:28:53;;;;;;;37.43;23.17;;;1.70;99.90;;;0.90;100.00;98257.06;5047837;28;20469;-72
2024/02/29 01:31:20;;;;;;;35.17;21.87;;;1.80;99.90;;;0.81;100.00;98229.50;5049457;28;20511;-69
2024/02/29 01:33:48;;;;;;;38.67;22.37;;;1.90;99.90;;;0.83;100.00;98254.16;5066614;28;20449;-69
2024/02/29 01:36:15;;;;;;;31.87;21.97;;;1.90;99.60;;;0.83;100.00;98244.34;5051499;28;21119;-71
2024/02/29 01:38:42;;;;;;;29.80;20.73;;;1.90;99.20;;;0.92;100.00;98244.44;5055904;28;20456;-71
2024/02/29 01:41:10;;;;;;;33.20;20.63;;;1.90;98.90;;;0.86;100.00;98237.06;5022964;28;20474;-69
2024/02/29 01:43:37;;;;;;;33.07;21.43;;;2.00;97.60;;;0.66;100.00;98230.00;5046972;28;20790;-69
2024/02/29 01:46:14;;;;;;;27.77;19.47;;;1.90;97.00;;;0.93;100.00;98232.81;5048976;28;20525;-71
2024/02/29 01:48:42;;;;;;;32.97;20.90;;;1.90;97.80;;;1.03;100.00;98238.91;5045669;28;20562;-70
2024/02/29 01:51:12;;;;;;;31.87;21.10;;;2.00;97.80;;;1.04;100.00;98232.59;5046070;28;20916;-70
2024/02/29 01:53:39;;;;;;;32.23;20.80;;;2.00;98.10;;;0.98;100.00;98204.78;5038633;28;20464;-69
2024/02/29 01:56:07;;;;;;;31.00;20.17;;;2.00;98.70;;;1.13;100.00;98237.00;5046780;28;20523;-69
2024/02/29 01:58:36;;;;;;;32.23;19.93;;;2.10;98.80;;;1.24;100.00;98236.00;5040844;28;20483;-69
2024/02/29 02:01:03;;;;;;;30.57;20.73;;;2.20;98.70;;;1.24;100.00;98229.81;5042258;28;21035;-72
2024/02/29 02:03:34;;;;;;;33.50;19.47;;;2.20;98.00;;;1.15;100.00;98234.22;5047746;28;20488;-72
2024/02/29 02:06:01;;;;;;;27.70;19.13;;;2.10;97.20;;;1.21;100.00;98227.47;5044868;28;20821;-71
2024/02/29 02:08:31;;;;;;;28.80;20.10;;;2.20;97.70;;;1.28;100.00;98228.53;5044969;28;20482;-70
2024/02/29 02:10:59;;;;;;;31.33;19.03;;;2.20;98.20;;;1.50;100.00;98219.25;5049637;28;20504;-71
2024/02/29 02:13:27;;;;;;;31.90;19.73;;;2.40;98.30;;;1.50;100.00;98227.25;5040172;28;20465;-71
2024/02/29 02:15:55;;;;;;;31.93;19.97;;;2.40;97.70;;;1.45;100.00;98220.72;5045069;28;20880;-70
2024/02/29 02:18:23;;;;;;;27.23;18.40;;;2.40;97.10;;;1.61;100.00;98223.53;5054607;28;20573;-71
2024/02/29 02:20:54;;;;;;;27.70;19.33;;;2.40;97.30;;;1.69;100.00;98234.25;5041658;28;20495;-71
2024/02/29 02:23:22;;;;;;;28.63;19.63;;;2.60;97.40;;;1.69;100.00;98226.25;5049349;28;20470;-71
2024/02/29 02:25:50;;;;;;;27.57;19.57;;;2.60;96.50;;;1.58;100.00;98218.47;5048101;28;20450;-70
2024/02/29 02:28:19;;;;;;;28.00;18.63;;;2.50;95.70;;;1.81;100.00;98210.84;5057233;28;20447;-70
2024/02/29 02:30:46;;;;;;;29.10;18.93;;;2.60;96.30;;;1.71;100.00;98210.13;5061273;28;20467;-70
2024/02/29 02:33:15;;;;;;;31.93;20.07;;;2.70;95.60;;;1.77;100.00;98211.34;5056813;28;20540;-70
2024/02/29 02:35:43;;;;;;;28.00;17.60;;;2.70;95.30;;;1.83;100.00;98216.03;5054355;28;20529;-71
2024/02/29 02:38:12;;;;;;;26.30;18.03;;;2.70;95.30;;;1.72;100.00;98211.78;5040215;28;20503;-71
2024/02/29 02:40:39;;;;;;;28.70;18.80;;;2.70;94.80;;;1.78;100.00;98202.34;5056536;28;20537;-69
2024/02/29 02:43:06;;;;;;;25.90;18.10;;;2.70;95.10;;;1.90;100.00;98202.94;5050953;28;20449;-69
2024/02/29 02:45:34;;;;;;;28.83;19.07;;;2.70;95.30;;;1.74;99.00;98159.19;5057563;28;20460;-70
2024/02/29 02:48:01;;;;;;;28.63;19.37;;;2.90;94.50;;;2.00;99.54;98202.81;5053474;28;20994;-72
2024/02/29 02:50:28;;;;;;;27.60;19.80;;;2.90;93.80;;;1.94;99.71;98199.81;5052331;28;20637;-71
2024/02/29 02:52:58;;;;;;;26.57;18.97;;;2.80;93.80;;;1.88;99.92;98195.09;5055823;28;20452;-71
2024/02/29 02:55:27;;;;;;;29.03;18.43;;;2.90;93.80;;;1.93;99.78;98192.81;5056044;28;20468;-70
2024/02/29 02:57:54;;;;;;;27.60;20.00;;;2.90;93.40;;;2.02;98.78;98190.19;5053273;28;20590;-71
2024/02/29 03:00:21;;;;;;;29.50;19.40;;;3.00;93.20;;;1.87;99.55;98174.75;5048185;28;20464;-70
2024/02/29 03:02:48;;;;;;;29.33;20.20;;;3.00;92.60;;;2.05;99.74;98173.91;5053245;28;20461;-70
2024/02/29 03:05:17;;;;;;;23.17;17.80;;;3.00;93.40;;;1.82;99.75;98110.44;5054530;28;20545;-72
2024/02/29 03:07:44;;;;;;;30.53;20.20;;;3.10;93.60;;;2.23;99.39;98174.66;5056306;28;20559;-70
2024/02/29 03:10:12;;;;;;;31.30;18.63;;;3.10;93.80;;;1.81;98.71;98108.78;5049120;28;20917;-69
2024/02/29 03:12:43;;;;;;;27.33;18.03;;;3.20;93.30;;;2.30;98.41;98177.53;5070006;28;20482;-70
2024/02/29 03:15:10;;;;;;;26.07;18.80;;;3.20;92.60;;;2.18;99.45;98174.28;5054798;28;20888;-71
2024/02/29 03:17:40;;;;;;;30.67;20.23;;;3.20;92.60;;;2.10;100.00;98176.91;5072031;28;20492;-70
2024/02/29 03:20:12;;;;;;;28.83;19.00;;;3.10;92.80;;;1.98;99.43;98153.19;5048003;28;20533;-70
2024/02/29 03:22:39;;;;;;;27.43;19.10;;;3.20;92.80;;;2.28;99.56;98178.69;5042773;28;21130;-68
2024/02/29 03:25:09;;;;;;;27.30;18.77;;;3.20;92.90;;;2.35;98.55;98169.03;5050836;28;20568;-71
2024/02/29 03:27:36;;;;;;;27.43;19.13;;;3.30;92.80;;;2.26;99.07;98166.34;5049668;28;20463;-69
2024/02/29 03:30:06;;;;;;;27.53;18.60;;;3.30;92.80;;;2.28;99.21;98152.03;5054842;28;20535;-74
2024/02/29 03:32:33;;;;;;;27.17;18.93;;;3.30;93.00;;;2.37;98.93;98156.41;5048408;28;20625;-71
2024/02/29 03:35:04;;;;;;;31.30;20.43;;;3.30;93.10;;;2.49;98.36;98154.28;5044793;28;20489;-73
2024/02/29 03:37:31;;;;;;;27.73;19.63;;;3.40;93.20;;;2.62;97.37;98160.00;5058350;28;20597;-72
2024/02/29 03:39:58;;;;;;;29.57;19.13;;;3.50;92.50;;;2.54;98.22;98168.81;5048086;28;20536;-74
2024/02/29 03:42:25;;;;;;;25.97;19.60;;;3.50;92.30;;;2.63;97.10;98158.16;5054237;28;20453;-71
2024/02/29 03:44:53;;;;;;;29.43;17.87;;;3.50;92.00;;;2.46;97.78;98133.28;5060956;28;21281;-73
2024/02/29 03:47:21;;;;;;;28.23;19.87;;;3.60;92.00;;;2.64;98.40;98157.16;5060967;28;20488;-71
2024/02/29 03:49:48;;;;;;;31.60;18.67;;;3.60;92.10;;;2.75;97.09;98153.38;5054745;28;20583;-69
2024/02/29 03:52:18;;;;;;;23.77;17.67;;;3.60;92.20;;;2.65;97.48;98157.00;5055753;28;20452;-69
2024/02/29 03:54:46;;;;;;;31.37;19.30;;;3.60;91.80;;;2.82;96.27;98144.56;5063562;28;20448;-70
2024/02/29 03:57:14;;;;;;;32.23;20.00;;;3.70;91.80;;;2.86;95.73;98150.41;5053561;28;20518;-69
2024/02/29 03:59:46;;;;;;;27.50;18.60;;;3.80;91.40;;;2.83;96.25;98140.91;5054271;28;20476;-69
2024/02/29 04:02:14;;;;;;;28.47;19.00;;;3.80;91.40;;;2.98;95.63;98145.59;5050175;28;21495;-68
2024/02/29 04:04:42;;;;;;;30.67;19.63;;;3.80;91.30;;;2.80;96.18;98145.72;5040049;28;20511;-69
2024/02/29 04:07:09;;;;;;;29.00;20.10;;;3.80;91.10;;;2.59;96.84;98141.66;5061216;28;20471;-69
2024/02/29 04:09:37;;;;;;;27.00;20.43;;;3.70;91.30;;;2.71;97.42;98136.84;5063531;28;20536;-71
2024/02/29 04:12:05;;;;;;;24.83;18.50;;;3.70;91.70;;;2.88;96.40;98129.75;5060080;28;20533;-70
2024/02/29 04:14:38;;;;;;;27.13;19.73;;;3.80;91.50;;;2.99;96.42;98133.94;5050112;28;20465;-69
2024/02/29 04:17:05;;;;;;;30.43;19.90;;;3.80;91.70;;;3.00;94.87;98134.75;5059475;28;20929;-70
2024/02/29 04:19:32;;;;;;;31.10;19.23;;;3.90;91.20;;;2.96;95.11;98126.25;5055234;28;20794;-71
2024/02/29 04:22:02;;;;;;;30.00;20.77;;;3.90;90.90;;;2.93;96.21;98118.56;5067988;28;20937;-69
2024/02/29 04:24:30;;;;;;;26.67;19.70;;;3.90;91.20;;;2.97;96.26;98122.59;5066740;28;20867;-70
2024/02/29 04:26:57;;;;;;;29.40;19.03;;;3.90;91.20;;;2.86;96.38;98117.56;5067941;28;20468;-69
2024/02/29 04:29:25;;;;;;;30.87;18.80;;;3.90;91.30;;;3.06;95.62;98116.25;5060603;28;20868;-70
2024/02/29 04:31:55;;;;;;;26.13;19.10;;;3.90;91.70;;;3.06;96.01;98118.09;5046383;28;20556;-69
2024/02/29 04:34:23;;;;;;;22.93;18.60;;;4.00;91.40;;;3.06;95.00;98118.91;5062411;28;20968;-71
2024/02/29 04:36:50;;;;;;;27.37;19.13;;;4.00;91.00;;;3.10;95.27;98109.56;5066667;28;20463;-73
2024/02/29 04:39:19;;;;;;;27.30;19.10;;;4.00;91.20;;;3.08;96.40;98116.91;5053973;28;20514;-69
2024/02/29 04:41:47;;;;;;;28.80;18.80;;;4.00;90.90;;;3.31;95.69;98110.94;5051822;28;20894;-73
2024/02/29 04:44:14;;;;;;;27.13;20.27;;;4.10;91.50;;;3.29;94.46;98101.41;5052177;28;20450;-71
2024/02/29 04:46:41;;;;;;;28.97;19.20;;;4.10;91.40;;;3.39;93.76;98108.25;5048601;28;20527;-69
2024/02/29 04:49:09;;;;;;;28.60;19.53;;;4.20;91.00;;;3.27;94.57;98114.94;5063372;28;20481;-69
2024/02/29 04:51:36;;;;;;;25.60;18.17;;;4.20;90.50;;;3.29;94.06;98117.44;5053417;28;20445;-72
2024/02/29 04:54:04;;;;;;;28.47;19.33;;;4.20;90.70;;;3.22;95.17;98117.25;5047193;28;20461;-70
2024/02/29 04:56:34;;;;;;;25.53;18.10;;;4.10;90.60;;;3.09;94.58;98062.50;5049244;28;20466;-71
2024/02/29 04:59:01;;;;;;;25.07;17.90;;;4.20;91.20;;;3.25;94.75;98111.56;5054001;28;20469;-69
2024/02/29 05:01:29;;;;;;;27.20;18.77;;;4.20;90.80;;;3.25;95.51;98111.56;5051655;28;20468;-70
2024/02/29 05:03:56;;;;;;;23.00;17.67;;;4.10;91.00;;;3.33;95.62;98108.94;5047483;28;20461;-70
2024/02/29 05:06:23;;;;;;;30.90;19.70;;;4.10;91.30;;;3.48;94.69;98100.25;5059338;28;20452;-71
2024/02/29 05:08:50;;;;;;;27.63;20.03;;;4.30;91.20;;;3.49;94.03;98107.25;5050870;28;20889;-71
2024/02/29 05:11:17;;;;;;;27.50;19.30;;;4.40;90.60;;;3.63;93.86;98111.91;5049099;28;21198;-70
2024/02/29 05:13:46;;;;;;;29.27;19.53;;;4.40;90.50;;;3.57;92.83;98104.59;5052305;28;20887;-69
2024/02/29 05:16:18;;;;;;;32.67;20.40;;;4.50;90.20;;;3.49;93.67;98099.25;5046832;28;20576;-69
2024/02/29 05:18:45;;;;;;;26.30;19.07;;;4.50;90.00;;;3.51;93.77;98102.56;5078660;28;20495;-71
2024/02/29 05:21:13;;;;;;;25.50;19.20;;;4.50;90.10;;;3.58;92.81;98106.25;5060622;28;20812;-70
2024/02/29 05:23:40;;;;;;;30.43;20.03;;;4.50;90.00;;;3.50;93.55;98092.88;5064343;28;20468;-70
2024/02/29 05:26:11;;;;;;;30.43;19.70;;;4.50;90.10;;;3.53;93.71;98097.88;5067412;28;20474;-69
2024/02/29 05:28:38;;;;;;;30.70;20.60;;;4.50;90.10;;;3.45;94.01;98105.94;5063294;28;20482;-70
2024/02/29 05:31:07;;;;;;;27.60;20.13;;;4.40;90.10;;;3.60;93.38;98098.91;5058947;28;20456;-72
2024/02/29 05:33:35;;;;;;;28.40;20.37;;;4.50;90.10;;;3.70;92.70;98101.41;5055861;28;20449;-70
2024/02/29 05:36:02;;;;;;;29.00;19.30;;;4.60;90.00;;;3.73;92.17;98094.88;5056573;28;20520;-71
2024/02/29 05:38:29;;;;;;;28.97;20.57;;;4.60;89.30;;;3.52;92.22;98074.84;5064595;28;20953;-74
2024/02/29 05:40:57;;;;;;;30.57;20.33;;;4.60;88.70;;;3.61;92.33;98094.38;5048714;28;20440;-75
2024/02/29 05:43:25;;;;;;;27.63;20.00;;;4.60;88.60;;;3.69;91.91;98089.84;5058832;28;20455;-74
2024/02/29 05:45:52;;;;;;;28.03;20.17;;;4.60;88.90;;;3.59;91.61;98086.56;5065953;28;20445;-75
2024/02/29 05:48:21;;;;;;;30.63;20.17;;;4.60;88.80;;;3.56;91.86;98086.88;5060384;28;20452;-78
2024/02/29 05:50:49;;;;;;;27.83;20.20;;;4.50;88.40;;;3.85;90.12;98090.00;5060900;28;20460;-76
2024/02/29 05:53:17;;;;;;;25.97;19.00;;;4.60;88.40;;;3.72;90.04;98074.50;5047459;28;20446;-78
2024/02/29 05:55:44;;;;;;;29.47;18.87;;;4.70;87.90;;;3.75;89.96;98071.50;5062030;28;20460;-75
2024/02/29 05:58:11;;;;;;;25.23;18.70;;;4.70;87.50;;;3.92;89.52;98089.16;5072411;28;20469;-76
2024/02/29 06:00:40;;;;;;;30.70;20.57;;;4.80;87.20;;;3.56;89.20;98009.38;5063064;28;20486;-74
2024/02/29 06:03:07;;;;;;;33.43;20.60;;;4.90;87.00;;;3.91;89.26;98074.13;5068585;28;20461;-74
2024/02/29 06:05:36;;;;;;;32.33;19.67;;;4.80;86.40;;;4.13;87.34;98077.06;5056020;28;20445;-77
2024/02/29 06:08:04;;;;;;;28.50;18.87;;;4.90;86.50;;;4.12;87.33;98080.72;5062530;28;20918;-74
2024/02/29 06:10:31;;;;;;;28.80;20.03;;;4.90;86.20;;;4.00;88.21;98087.44;5060295;28;20860;-73
2024/02/29 06:13:00;;;;;;;26.47;18.57;;;4.90;86.30;;;4.08;87.32;98080.22;5061488;28;20468;-69
2024/02/29 06:15:28;;;;;;;26.60;19.30;;;5.00;85.90;;;4.09;87.07;98075.75;5061570;28;21030;-67
2024/02/29 06:17:56;;;;;;;24.37;18.23;;;4.90;85.40;;;4.08;85.77;98068.72;5056136;28;20516;-70
2024/02/29 06:20:23;;;;;;;31.47;19.20;;;5.00;84.50;;;4.05;85.00;98080.59;5044851;28;21019;-70
2024/02/29 06:22:52;;;;;;;26.47;18.87;;;5.00;83.90;;;4.17;85.99;98083.75;5058979;28;21047;-72
2024/02/29 06:25:22;;;;;;;27.60;18.00;;;5.00;84.30;;;3.85;85.15;98015.16;5058116;28;20458;-69
2024/02/29 06:27:49;;;;;;;26.97;18.27;;;5.10;84.20;;;4.20;84.78;98078.03;5061568;28;20496;-70
2024/02/29 06:30:17;;;;;;;24.53;17.37;;;5.10;83.90;;;4.36;84.40;98073.63;5060975;28;20449;-72
2024/02/29 06:32:44;;;;;;;23.53;17.50;;;5.20;84.10;;;4.39;83.95;98065.25;5062082;28;20449;-71
2024/02/29 06:35:11;;;;;;;25.87;20.07;;;5.20;83.70;;;4.35;82.57;98075.47;5062034;28;20469;-71
2024/02/29 06:37:41;;;;;;;27.33;19.17;;;5.20;83.30;;;4.49;82.33;98070.38;5052019;28;21141;-73
2024/02/29 06:40:11;;;;;;;26.70;18.00;;;5.30;83.00;;;4.68;80.45;98074.47;5056600;28;20982;-72
2024/02/29 06:42:38;;;;;;;25.93;18.80;;;5.40;82.20;;;4.57;80.08;98061.47;5060281;28;20568;-73
2024/02/29 06:45:07;;;;;;;26.90;18.40;;;5.40;81.50;;;4.54;80.13;98068.00;5049478;28;20621;-71
2024/02/29 06:47:34;;;;;;;24.63;17.80;;;5.40;81.10;;;4.64;79.50;98063.28;5059240;28;20961;-72
2024/02/29 06:50:03;;;;;;;27.07;18.47;;;5.50;80.90;;;4.64;79.23;98063.28;5056167;28;20569;-76
2024/02/29 06:52:30;;;;;;;25.83;17.77;;;5.50;80.50;;;4.50;79.57;98067.53;5054104;28;20463;-69
2024/02/29 06:54:59;;;;;;;23.43;17.67;;;5.50;80.40;;;4.82;78.94;98054.13;5052126;28;20457;-68
2024/02/29 06:57:27;;;;;;;25.73;18.13;;;5.60;80.80;;;5.04;78.20;98060.50;5059858;28;20445;-69
2024/02/29 06:59:55;;;;;;;25.93;18.03;;;5.70;80.60;;;4.82;77.93;98064.84;5058722;28;20481;-69
2024/02/29 07:02:22;;;;;;;34.40;17.93;;;5.70;80.00;;;4.73;78.43;98057.88;5060034;28;20449;-69
2024/02/29 07:04:49;;;;;;;28.43;19.70;;;5.70;79.90;;;4.45;78.32;97999.50;5059881;28;20613;-68
2024/02/29 07:07:18;;;;;;;28.10;17.60;;;5.70;80.30;;;4.94;78.00;98057.25;5057625;28;20458;-68
2024/02/29 07:09:47;;;;;;;23.10;17.77;;;5.70;80.00;;;5.08;77.26;98048.44;5061901;28;20531;-69
2024/02/29 07:12:15;;;;;;;25.83;17.10;;;5.80;79.80;;;5.13;76.32;98055.09;5056213;28;20464;-78
2024/02/29 07:14:43;;;;;;;23.37;16.87;;;5.90;79.50;;;5.09;76.27;98057.28;5048769;28;20464;-80
2024/02/29 07:17:11;;;;;;;24.17;18.08;;;5.90;79.30;;;5.26;75.38;98058.00;5074937;28;20468;-77
2024/02/29 07:19:39;;;;;;;20.80;16.90;;;6.00;79.00;;;5.02;76.12;98051.00;5060220;28;20218;-77
2024/02/29 07:22:07;;;;;;;25.27;16.37;;;6.00;78.90;;;5.29;76.30;98049.59;5057100;28;20511;-78
2024/02/29 07:24:34;;;;;;;25.10;17.70;;;6.00;79.10;;;5.10;76.05;98034.84;5052382;28;20446;-79
2024/02/29 07:27:02;;;;;;;20.48;16.05;;;6.00;78.80;;;5.42;75.22;98042.81;5054620;28;20462;-79
2024/02/29 07:29:30;;;;;;;21.37;16.20;;;6.20;78.60;;;4.97;75.64;98003.34;5058918;28;20230;-79
2024/02/29 07:31:58;;;;;;;19.97;15.70;;;6.10;78.40;;;5.47;74.57;98040.41;5056382;28;20477;-78
2024/02/29 07:34:25;;;;;;;23.30;16.07;;;6.20;78.50;;;5.45;74.53;98050.47;5061299;28;20457;-78
2024/02/29 07:36:52;;;;;;;21.50;16.37;;;6.30;78.00;;;5.55;73.63;98045.69;5057111;28;20445;-80
2024/02/29 07:39:20;;;;;;;22.73;16.50;;;6.30;77.80;;;5.08;75.14;98047.59;5059169;28;20468;-79
2024/02/29 07:41:47;;;;;;;24.30;20.00;;;6.20;77.80;;;5.19;74.22;97998.13;5049391;28;20461;-79
2024/02/29 07:44:15;;;;;;;24.13;18.02;;;6.30;78.10;;;5.71;72.77;98047.38;5052433;28;20454;-78
2024/02/29 07:46:42;;;;;;;23.87;16.43;;;6.40;77.60;;;5.74;73.57;98051.53;5064255;28;20978;-80
2024/02/29 07:49:11;;;;;;;22.20;15.97;;;6.40;77.90;;;5.58;74.12;98056.03;5059185;28;20448;-77
2024/02/29 07:51:39;;;;;;;23.93;17.20;;;6.40;77.60;;;5.71;73.57;98046.53;5067482;28;20457;-78
2024/02/29 07:54:06;;;;;;;23.90;16.27;;;6.50;77.60;;;5.75;72.77;98037.94;5058376;28;20443;-79
2024/02/29 07:56:33;;;;;;;25.10;17.43;;;6.60;77.20;;;5.72;73.34;98032.13;5061678;28;20198;-79
2024/02/29 07:59:01;;;;;;;24.73;16.20;;;6.50;77.10;;;5.74;72.96;98040.81;5063423;28;20488;-79
2024/02/29 08:01:28;;;;;;;22.30;16.47;;;6.60;77.10;;;5.81;72.25;98033.69;5064331;28;20518;-79
2024/02/29 08:03:56;;;;;;;23.63;17.20;;;6.70;76.80;;;5.96;71.59;98029.16;5074009;28;20449;-77
2024/02/29 08:06:24;;;;;;;23.27;17.10;;;6.80;76.80;;;5.80;72.55;98010.56;5062117;28;21048;-79
2024/02/29 08:08:51;;;;;;;24.67;16.27;;;6.70;76.70;;;5.87;72.02;98018.72;5073957;28;20463;-80
2024/02/29 08:11:19;;;;;;;18.67;14.47;;;6.80;76.30;;;5.66;72.08;98025.66;5054580;28;20449;-81
2024/02/29 08:13:46;;;;;;;19.40;14.70;;;6.70;76.10;;;5.66;72.67;98023.78;5058497;28;20455;-78
2024/02/29 08:16:16;;;;;;;20.10;15.87;;;6.50;76.50;;;5.72;72.31;98032.13;5056411;28;20457;-78
2024/02/29 08:18:43;;;;;;;19.57;15.23;;;6.50;76.40;;;5.95;72.25;98015.94;5062479;28;20483;-75
2024/02/29 08:21:11;;;;;;;20.80;16.30;;;6.70;76.80;;;6.53;69.63;98017.94;5065546;28;21226;-77
2024/02/29 08:23:39;;;;;;;23.13;16.60;;;7.00;76.10;;;6.66;69.20;98004.63;5061322;28;20536;-79
2024/02/29 08:26:09;;;;;;;21.80;15.97;;;7.30;75.70;;;5.76;70.04;97947.63;5056357;28;20889;-80
2024/02/29 08:28:37;;;;;;;20.63;16.93;;;7.10;74.90;;;6.30;69.79;97997.41;5060572;28;20461;-79
2024/02/29 08:31:05;;;;;;;25.23;18.07;;;7.20;74.90;;;6.44;68.91;98003.75;5058254;28;20450;-79
2024/02/29 08:33:33;;;;;;;22.93;15.57;;;7.30;74.70;;;6.43;67.82;97996.72;5056642;28;20450;-78
2024/02/29 08:36:01;;;;;;;21.33;15.67;;;7.40;73.60;;;6.45;67.57;97993.88;5084036;28;20470;-79
2024/02/29 08:38:28;;;;;;;19.40;15.17;;;7.40;73.50;;;6.54;67.58;97995.44;5053326;28;20972;-79
2024/02/29 08:40:57;;;;;;;21.53;15.30;;;7.30;73.30;;;6.53;66.92;97991.09;5062570;28;20457;-78
2024/02/29 08:43:24;;;;;;;20.67;14.47;;;7.40;72.60;;;6.47;66.54;97992.66;5047162;28;20457;-77
2024/02/29 08:45:53;;;;;;;20.03;14.60;;;7.40;72.30;;;6.48;66.58;97991.66;5056518;28;20447;-78
2024/02/29 08:48:20;;;;;;;18.63;13.90;;;7.40;72.20;;;7.23;64.10;97979.75;5061595;28;20458;-78
2024/02/29 08:50:49;;;;;;;21.17;14.90;;;7.80;71.80;;;6.95;64.90;97984.03;5053232;28;20474;-79
2024/02/29 08:53:17;;;;;;;18.77;13.50;;;7.90;71.50;;;6.37;66.09;97966.13;5058042;28;20452;-80
2024/02/29 08:55:44;;;;;;;16.40;13.33;;;7.50;70.90;;;6.45;66.19;97977.75;5062325;28;20464;-79
2024/02/29 08:58:13;;;;;;;19.30;14.73;;;7.40;71.50;;;6.95;64.42;97956.34;5075521;28;20450;-79
2024/02/29 09:00:41;;;;;;;19.03;15.27;;;7.70;71.40;;;7.19;64.36;97984.66;5051736;28;20490;-78
2024/02/29 09:03:09;;;;;;;20.00;16.23;;;7.90;71.40;;;7.63;62.55;97974.63;5063662;28;20553;-78
2024/02/29 09:05:36;;;;;;;19.43;13.90;;;8.20;70.70;;;7.35;62.86;97980.03;5055213;28;20476;-78
2024/02/29 09:08:04;;;;;;;21.80;16.37;;;8.20;69.90;;;7.50;63.22;97975.38;5065008;28;20454;-78
2024/02/29 09:10:33;;;;;;;21.30;15.80;;;8.20;70.30;;;7.68;62.27;97975.91;5055020;28;20455;-78
2024/02/29 09:13:01;;;;;;;20.83;15.70;;;8.40;70.10;;;7.65;62.48;97972.56;5072325;28;20790;-78
2024/02/29 09:15:30;;;;;;;22.13;15.47;;;8.40;69.90;;;7.86;62.14;97968.13;5079415;28;20458;-78
2024/02/29 09:17:57;;;;;;;29.43;20.00;;;8.50;69.70;;;7.77;62.42;97966.63;5064032;28;20822;-76
2024/02/29 09:20:24;;;;;;;21.30;15.10;;;8.50;69.60;;;7.25;63.54;97956.19;5065705;28;20855;-78
2024/02/29 09:22:52;;;;;;;20.23;15.23;;;8.20;69.70;;;7.39;63.51;97953.59;5054233;28;20451;-78
2024/02/29 09:25:19;;;;;;;21.03;15.30;;;8.20;69.80;;;7.18;63.26;97955.28;5056352;28;20453;-77
2024/02/29 09:27:46;;;;;;;21.03;17.13;;;8.20;69.30;;;7.54;63.05;97937.34;5056334;28;20444;-78
2024/02/29 09:30:14;;;;;;;19.13;15.20;;;8.30;69.60;;;7.76;62.10;97940.75;5055957;28;20549;-77
2024/02/29 09:32:43;;;;;;;26.50;17.27;;;8.50;69.10;;;7.71;62.18;97937.84;5051680;28;20942;-77
2024/02/29 09:35:11;;;;;;;19.83;15.33;;;8.50;69.10;;;7.63;62.08;97931.59;5060054;28;20527;-78
2024/02/29 09:37:39;;;;;;;20.87;15.07;;;8.60;68.60;;;7.76;61.67;97932.69;5050029;28;20454;-78
2024/02/29 09:40:08;;;;;;;20.43;15.27;;;8.60;68.50;;;7.72;62.35;97928.75;5047553;28;20472;-79
2024/02/29 09:42:37;;;;;;;19.97;15.40;;;8.70;68.50;;;7.47;62.84;97931.91;5050952;28;20468;-79
2024/02/29 09:45:08;;;;;;;19.90;15.50;;;8.50;68.30;;;7.71;62.30;97927.91;5050236;28;20450;-79
2024/02/29 09:47:36;;;;;;;19.63;15.90;;;8.50;68.90;;;7.85;61.14;97891.16;5060606;28;20458;-77
2024/02/29 09:50:06;;;;;;;21.80;16.83;;;8.80;68.40;;;8.01;61.51;97916.06;5057035;28;20966;-79
2024/02/29 09:52:37;;;;;;;23.17;16.27;;;8.90;68.40;;;7.93;61.10;97909.81;5049233;28;20477;-78
2024/02/29 09:55:07;;;;;;;25.13;16.13;;;8.70;68.20;;;7.64;62.30;97906.38;5052701;28;20523;-77
2024/02/29 09:57:35;;;;;;;19.10;14.33;;;8.60;68.40;;;7.59;62.11;97908.81;5047374;28;20462;-79
2024/02/29 10:00:03;;;;;;;23.20;17.57;;;8.50;68.00;;;7.53;62.65;97906.09;5072780;28;20479;-79
2024/02/29 10:02:31;;;;;;;25.30;16.47;;;8.50;68.20;;;7.54;62.90;97900.53;5047159;28;20462;-78
2024/02/29 10:04:58;;;;;;;22.67;16.30;;;8.40;68.40;;;7.19;63.30;97901.34;5049926;28;20465;-79
2024/02/29 10:07:28;;;;;;;22.07;14.67;;;8.20;68.40;;;7.29;63.61;97892.94;5058615;28;20443;-78
2024/02/29 10:09:55;;;;;;;21.73;16.17;;;8.20;68.80;;;7.24;63.62;97887.34;5058353;28;20465;-76
2024/02/29 10:12:23;;;;;;;18.47;15.50;;;8.20;68.60;;;7.04;64.30;97885.34;5060449;28;20534;-76
2024/02/29 10:15:00;;;;;;;22.53;16.30;;;8.20;69.00;;;7.51;63.87;97885.63;5060001;28;20473;-77
2024/02/29 10:17:27;;;;;;;25.30;17.30;;;8.20;69.50;;;7.70;62.89;97877.03;5057369;28;20451;-78
2024/02/29 10:19:54;;;;;;;23.50;16.20;;;8.40;69.20;;;7.89;62.33;97881.66;5060530;28;22373;-79